createdAt,value
2022-11-07T00:01:47.116Z,6.66
2022-11-07T00:04:14.960Z,6.63
2022-11-07T00:06:42.208Z,6.59
2022-11-07T00:09:09.494Z,6.59
2022-11-07T00:11:36.890Z,6.56
2022-11-07T00:14:04.375Z,6.53
2022-11-07T00:16:32.747Z,6.52
2022-11-07T00:19:00.044Z,6.50
2022-11-07T00:21:27.290Z,6.49
2022-11-07T00:23:54.678Z,6.44
2022-11-07T00:26:22.456Z,6.42
2022-11-07T00:28:50.164Z,6.41
2022-11-07T00:31:18.100Z,6.40
2022-11-07T00:33:45.708Z,6.40
2022-11-07T00:36:28.434Z,6.41
2022-11-07T00:38:55.996Z,6.42
2022-11-07T00:41:23.765Z,6.45
2022-11-07T00:43:51.224Z,6.46
2022-11-07T00:46:19.649Z,6.47
2022-11-07T00:48:47.477Z,6.50
2022-11-07T00:51:23.940Z,6.48
2022-11-07T00:53:51.346Z,6.44
2022-11-07T00:56:21.677Z,6.41
2022-11-07T00:58:48.846Z,6.39
2022-11-07T01:01:20.253Z,6.37
2022-11-07T01:04:07.115Z,6.33
2022-11-07T01:06:37.090Z,6.26
2022-11-07T01:09:08.129Z,6.27
2022-11-07T01:11:38.261Z,6.30
2022-11-07T01:14:06.720Z,6.33
2022-11-07T01:16:38.992Z,6.30
2022-11-07T01:19:07.171Z,6.25
2022-11-07T01:21:34.746Z,6.21
2022-11-07T01:24:03.660Z,6.19
2022-11-07T01:26:30.821Z,6.16
2022-11-07T01:28:58.021Z,6.15
2022-11-07T01:31:25.527Z,6.13
2022-11-07T01:33:52.735Z,6.11
2022-11-07T01:36:19.776Z,6.08
2022-11-07T01:38:48.765Z,6.07
2022-11-07T01:41:26.952Z,6.09
2022-11-07T01:44:02.258Z,6.13
2022-11-07T01:46:43.655Z,6.14
2022-11-07T01:49:16.985Z,6.14
2022-11-07T01:51:57.942Z,6.08
2022-11-07T01:54:30.426Z,6.05
2022-11-07T01:57:00.601Z,6.04
2022-11-07T01:59:31.370Z,6.05
2022-11-07T02:01:59.391Z,6.02
2022-11-07T02:04:29.669Z,6.03
2022-11-07T02:07:11.685Z,6.06
2022-11-07T02:09:39.192Z,6.09
2022-11-07T02:12:06.794Z,6.12
2022-11-07T02:14:33.933Z,6.13
2022-11-07T02:17:01.450Z,6.11
2022-11-07T02:19:43.813Z,6.11
2022-11-07T02:22:48.831Z,6.11
2022-11-07T02:25:18.059Z,6.13
2022-11-07T02:27:48.136Z,6.10
2022-11-07T02:30:22.268Z,6.10
2022-11-07T02:32:50.856Z,6.13
2022-11-07T02:35:36.585Z,6.15
2022-11-07T02:38:08.701Z,6.16
2022-11-07T02:40:36.173Z,6.13
2022-11-07T02:43:04.758Z,6.16
2022-11-07T02:45:35.985Z,6.20
2022-11-07T02:48:03.856Z,6.19
2022-11-07T02:50:31.259Z,6.19
2022-11-07T02:52:58.415Z,6.19
2022-11-07T02:55:25.536Z,6.20
2022-11-07T02:57:52.763Z,6.19
2022-11-07T03:00:20.101Z,6.19
2022-11-07T03:02:47.561Z,6.21
2022-11-07T03:05:16.409Z,6.27
2022-11-07T03:07:44.946Z,6.32
2022-11-07T03:10:12.994Z,6.35
2022-11-07T03:12:40.097Z,6.38
2022-11-07T03:15:09.867Z,6.40
2022-11-07T03:17:37.442Z,6.42
2022-11-07T03:20:05.468Z,6.43
2022-11-07T03:22:32.600Z,6.41
2022-11-07T03:24:59.706Z,6.39
2022-11-07T03:27:26.872Z,6.39
2022-11-07T03:29:53.957Z,6.38
2022-11-07T03:32:22.812Z,6.38
2022-11-07T03:34:50.136Z,6.39
2022-11-07T03:37:17.676Z,6.41
2022-11-07T03:39:44.816Z,6.43
2022-11-07T03:42:11.992Z,6.42
2022-11-07T03:44:39.193Z,6.40
2022-11-07T03:47:06.409Z,6.39
2022-11-07T03:49:33.618Z,6.39
2022-11-07T03:52:00.672Z,6.40
2022-11-07T03:54:27.754Z,6.40
2022-11-07T03:56:54.927Z,6.40
2022-11-07T03:59:22.234Z,6.41
2022-11-07T04:01:49.534Z,6.40
2022-11-07T04:04:16.797Z,6.41
2022-11-07T04:06:44.603Z,6.44
2022-11-07T04:09:11.748Z,6.44
2022-11-07T04:12:11.155Z,6.45
2022-11-07T04:14:57.132Z,6.41
2022-11-07T04:17:24.996Z,6.40
2022-11-07T04:19:57.145Z,6.37
2022-11-07T04:22:25.623Z,6.37
2022-11-07T04:24:52.875Z,6.34
2022-11-07T04:27:39.626Z,6.32
2022-11-07T04:30:30.049Z,6.27
2022-11-07T04:32:59.659Z,6.19
2022-11-07T04:35:29.752Z,6.17
2022-11-07T04:37:57.849Z,6.19
2022-11-07T04:40:25.461Z,6.23
2022-11-07T04:42:52.561Z,6.26
2022-11-07T04:45:19.666Z,6.27
2022-11-07T04:47:46.973Z,6.23
2022-11-07T04:50:17.108Z,6.23
2022-11-07T04:52:45.705Z,6.23
2022-11-07T04:55:22.606Z,6.22
2022-11-07T04:57:49.855Z,6.23
2022-11-07T05:00:18.838Z,6.24
2022-11-07T05:02:47.396Z,6.28
2022-11-07T05:05:15.325Z,6.33
2022-11-07T05:07:42.732Z,6.40
2022-11-07T05:10:17.972Z,6.43
2022-11-07T05:12:45.209Z,6.44
2022-11-07T05:15:12.614Z,6.44
2022-11-07T05:17:39.842Z,6.42
2022-11-07T05:20:07.927Z,6.38
2022-11-07T05:22:56.236Z,6.40
2022-11-07T05:25:23.579Z,6.43
2022-11-07T05:27:55.625Z,6.44
2022-11-07T05:30:22.721Z,6.43
2022-11-07T05:32:49.927Z,6.41
2022-11-07T05:35:17.127Z,6.42
2022-11-07T05:37:44.338Z,6.42
2022-11-07T05:40:12.293Z,6.40
2022-11-07T05:42:39.658Z,6.41
2022-11-07T05:45:07.875Z,6.43
2022-11-07T05:47:34.961Z,6.43
2022-11-07T05:50:02.125Z,6.40
2022-11-07T05:52:29.382Z,6.33
2022-11-07T05:54:56.571Z,6.34
2022-11-07T05:57:23.728Z,6.34
2022-11-07T05:59:50.837Z,6.32
2022-11-07T06:02:18.145Z,6.35
2022-11-07T06:04:45.366Z,6.39
2022-11-07T06:07:12.568Z,6.42
2022-11-07T06:09:39.860Z,6.45
2022-11-07T06:12:07.129Z,6.47
2022-11-07T06:14:34.308Z,6.51
2022-11-07T06:17:01.529Z,6.57
2022-11-07T06:19:28.611Z,6.62
2022-11-07T06:21:55.651Z,6.65
2022-11-07T06:24:22.797Z,6.65
2022-11-07T06:26:49.995Z,6.69
2022-11-07T06:29:17.212Z,6.73
2022-11-07T06:31:44.387Z,6.71
2022-11-07T06:34:11.555Z,6.68
2022-11-07T06:36:38.631Z,6.64
2022-11-07T06:39:05.748Z,6.64
2022-11-07T06:41:32.861Z,6.65
2022-11-07T06:44:00.005Z,6.66
2022-11-07T06:46:27.199Z,6.70
2022-11-07T06:48:54.609Z,6.71
2022-11-07T06:51:21.707Z,6.73
2022-11-07T06:53:50.446Z,6.76
2022-11-07T06:56:17.575Z,6.79
2022-11-07T06:58:44.661Z,6.82
2022-11-07T07:01:16.519Z,6.85
2022-11-07T07:03:44.040Z,6.86
2022-11-07T07:06:16.361Z,6.89
2022-11-07T07:08:45.382Z,6.94
2022-11-07T07:11:14.380Z,6.97
2022-11-07T07:13:41.920Z,7.00
2022-11-07T07:16:09.522Z,7.04
2022-11-07T07:18:36.724Z,7.08
2022-11-07T07:21:06.913Z,7.10
2022-11-07T07:23:35.074Z,7.09
2022-11-07T07:26:03.304Z,7.06
2022-11-07T07:28:30.318Z,7.05
2022-11-07T07:31:18.773Z,7.05
2022-11-07T07:33:47.934Z,7.08
2022-11-07T07:36:20.522Z,7.12
2022-11-07T07:38:49.041Z,7.16
2022-11-07T07:41:16.709Z,7.17
2022-11-07T07:43:43.930Z,7.18
2022-11-07T07:46:15.485Z,7.19
2022-11-07T07:48:42.569Z,7.19
2022-11-07T07:51:09.711Z,7.19
2022-11-07T07:53:36.861Z,7.21
2022-11-07T07:56:06.484Z,7.23
2022-11-07T07:58:33.955Z,7.27
2022-11-07T08:01:01.293Z,7.31
2022-11-07T08:03:32.055Z,7.34
2022-11-07T08:06:07.472Z,7.36
2022-11-07T08:08:38.120Z,7.38
2022-11-07T08:11:07.774Z,7.42
2022-11-07T08:13:35.053Z,7.46
2022-11-07T08:16:03.920Z,7.48
2022-11-07T08:18:31.359Z,7.51
2022-11-07T08:20:58.522Z,7.55
2022-11-07T08:23:25.693Z,7.55
2022-11-07T08:25:55.282Z,7.55
2022-11-07T08:28:28.920Z,7.57
2022-11-07T08:30:57.006Z,7.59
2022-11-07T08:33:24.899Z,7.61
2022-11-07T08:35:53.591Z,7.65
2022-11-07T08:38:20.778Z,7.68
2022-11-07T08:40:49.163Z,7.71
2022-11-07T08:43:18.539Z,7.71
2022-11-07T08:45:47.720Z,7.71
2022-11-07T08:48:16.842Z,7.72
2022-11-07T08:50:44.065Z,7.74
2022-11-07T08:53:11.624Z,7.75
2022-11-07T08:55:38.958Z,7.78
2022-11-07T08:58:07.818Z,7.82
2022-11-07T09:00:35.906Z,7.85
2022-11-07T09:05:52.716Z,7.93
2022-11-07T09:08:19.931Z,7.99
2022-11-07T09:10:47.142Z,8.02
2022-11-07T09:13:15.402Z,8.05
2022-11-07T09:15:47.675Z,8.06
2022-11-07T09:18:16.561Z,8.07
2022-11-07T09:20:43.688Z,8.06
2022-11-07T09:23:10.840Z,8.08
2022-11-07T09:25:37.951Z,8.10
2022-11-07T09:28:05.362Z,8.13
2022-11-07T09:30:32.748Z,8.15
2022-11-07T09:33:00.073Z,8.16
2022-11-07T09:35:27.720Z,8.17
2022-11-07T09:37:55.328Z,8.16
2022-11-07T09:40:24.776Z,8.18
2022-11-07T09:43:07.407Z,8.18
2022-11-07T09:45:43.577Z,8.20
2022-11-07T09:48:20.103Z,8.20
2022-11-07T09:50:49.411Z,8.22
2022-11-07T09:53:34.309Z,8.25
2022-11-07T09:56:06.777Z,8.32
2022-11-07T09:58:37.447Z,8.39
2022-11-07T10:01:10.991Z,8.41
2022-11-07T10:03:43.152Z,8.42
2022-11-07T10:06:32.253Z,8.43
2022-11-07T10:09:02.013Z,8.44
2022-11-07T10:11:48.377Z,8.47
2022-11-07T10:14:43.561Z,8.49
2022-11-07T10:17:41.187Z,8.49
2022-11-07T10:20:46.829Z,8.51
2022-11-07T10:23:29.054Z,8.66
2022-11-07T10:26:09.419Z,8.87
2022-11-07T10:28:45.791Z,9.02
2022-11-07T10:31:15.162Z,9.09
2022-11-07T10:33:56.180Z,9.13
2022-11-07T10:36:25.113Z,9.20
2022-11-07T10:38:52.840Z,9.23
2022-11-07T10:41:27.866Z,9.21
2022-11-07T10:44:03.660Z,9.22
2022-11-07T10:46:41.584Z,9.21
2022-11-07T10:49:22.333Z,9.20
2022-11-07T10:51:50.445Z,9.17
2022-11-07T10:54:30.344Z,9.16
2022-11-07T10:57:28.841Z,9.16
2022-11-07T10:59:58.452Z,9.18
2022-11-07T11:02:25.506Z,9.22
2022-11-07T11:04:58.276Z,9.21
2022-11-07T11:07:34.169Z,9.16
2022-11-07T11:10:01.839Z,9.14
2022-11-07T11:12:34.540Z,9.13
2022-11-07T11:15:10.899Z,9.15
2022-11-07T11:17:38.185Z,9.19
2022-11-07T11:20:07.286Z,9.25
2022-11-07T11:22:42.222Z,9.34
2022-11-07T11:25:19.000Z,9.43
2022-11-07T11:27:49.255Z,9.49
2022-11-07T11:30:18.920Z,9.54
2022-11-07T11:32:52.634Z,9.61
2022-11-07T11:35:36.323Z,9.71
2022-11-07T11:38:17.471Z,9.82
2022-11-07T11:40:50.438Z,9.92
2022-11-07T11:43:22.381Z,9.96
2022-11-07T11:46:03.065Z,10.03
2022-11-07T11:48:34.216Z,10.08
2022-11-07T11:51:06.614Z,10.12
2022-11-07T11:53:34.033Z,10.18
2022-11-07T11:56:23.466Z,10.27
2022-11-07T11:58:53.385Z,10.28
2022-11-07T12:01:57.079Z,10.28
2022-11-07T12:04:52.659Z,10.30
2022-11-07T12:07:42.077Z,10.35
2022-11-07T12:10:33.408Z,10.42
2022-11-07T12:13:18.484Z,10.48
2022-11-07T12:16:06.842Z,10.52
2022-11-07T12:18:46.798Z,10.48
2022-11-07T12:21:37.545Z,10.41
2022-11-07T12:24:25.545Z,10.38
2022-11-07T12:26:56.308Z,10.41
2022-11-07T12:29:33.324Z,10.44
2022-11-07T12:32:03.122Z,10.48
2022-11-07T12:34:33.177Z,10.50
2022-11-07T12:37:16.885Z,10.50
2022-11-07T12:40:12.396Z,10.46
2022-11-07T12:43:21.433Z,10.49
2022-11-07T12:46:05.244Z,10.50
2022-11-07T12:48:53.120Z,10.50
2022-11-07T12:51:45.082Z,10.50
2022-11-07T12:54:28.165Z,10.49
2022-11-07T12:56:57.617Z,10.44
2022-11-07T12:59:31.938Z,10.37
2022-11-07T13:02:02.939Z,10.29
2022-11-07T13:04:53.285Z,10.21
2022-11-07T13:07:35.896Z,10.11
2022-11-07T13:10:13.180Z,10.04
2022-11-07T13:12:50.986Z,9.98
2022-11-07T13:15:18.422Z,9.92
2022-11-07T13:17:47.196Z,9.84
2022-11-07T13:20:20.421Z,9.76
2022-11-07T13:22:49.433Z,9.70
2022-11-07T13:25:17.311Z,9.65
2022-11-07T13:27:59.423Z,9.59
2022-11-07T13:30:40.330Z,9.52
2022-11-07T13:33:25.741Z,9.47
2022-11-07T13:35:55.713Z,9.42
2022-11-07T13:38:25.105Z,9.39
2022-11-07T13:40:58.449Z,9.35
2022-11-07T13:43:41.898Z,9.33
2022-11-07T13:46:17.183Z,9.33
2022-11-07T13:48:52.956Z,9.32
2022-11-07T13:51:29.083Z,9.30
2022-11-07T13:54:02.265Z,9.28
2022-11-07T13:56:36.170Z,9.24
2022-11-07T13:59:05.785Z,9.21
2022-11-07T14:01:44.413Z,9.19
2022-11-07T14:04:22.123Z,9.17
2022-11-07T14:06:50.636Z,9.16
2022-11-07T14:09:20.542Z,9.16
2022-11-07T14:11:51.796Z,9.15
2022-11-07T14:14:22.968Z,9.13
2022-11-07T14:16:50.259Z,9.12
2022-11-07T14:19:26.686Z,9.12
2022-11-07T14:21:55.866Z,9.12
2022-11-07T14:24:33.715Z,9.12
2022-11-07T14:27:14.541Z,9.12
2022-11-07T14:29:55.338Z,9.09
2022-11-07T14:32:26.908Z,9.08
2022-11-07T14:34:56.572Z,9.08
2022-11-07T14:37:25.712Z,9.10
2022-11-07T14:39:53.068Z,9.11
2022-11-07T14:42:25.318Z,9.09
2022-11-07T14:44:57.019Z,9.07
2022-11-07T14:47:28.340Z,9.06
2022-11-07T14:49:56.177Z,9.04
2022-11-07T14:52:26.935Z,9.05
2022-11-07T14:54:59.708Z,9.06
2022-11-07T14:57:27.105Z,9.07
2022-11-07T14:59:54.444Z,9.07
2022-11-07T15:02:30.760Z,9.08
2022-11-07T15:05:06.679Z,9.06
2022-11-07T15:07:47.135Z,9.06
2022-11-07T15:10:24.928Z,9.09
2022-11-07T15:12:55.938Z,9.11
2022-11-07T15:15:26.007Z,9.11
2022-11-07T15:17:55.693Z,9.10
2022-11-07T15:20:35.142Z,9.08
2022-11-07T15:23:04.460Z,9.06
2022-11-07T15:25:51.535Z,9.05
2022-11-07T15:28:22.179Z,9.04
2022-11-07T15:30:50.664Z,9.04
2022-11-07T15:33:18.838Z,9.02
2022-11-07T15:35:48.474Z,8.98
2022-11-07T15:38:23.770Z,8.94
2022-11-07T15:40:54.495Z,8.92
2022-11-07T15:43:21.689Z,8.90
2022-11-07T15:45:51.029Z,8.87
2022-11-07T15:48:22.016Z,8.86
2022-11-07T15:50:49.776Z,8.84
2022-11-07T15:53:27.514Z,8.82
2022-11-07T15:55:58.007Z,8.78
2022-11-07T15:58:28.264Z,8.74
2022-11-07T16:00:57.282Z,8.72
2022-11-07T16:03:26.630Z,8.70
2022-11-07T16:05:58.007Z,8.68
2022-11-07T16:08:25.430Z,8.66
2022-11-07T16:10:56.085Z,8.64
2022-11-07T16:13:23.205Z,8.63
2022-11-07T16:16:00.993Z,8.62
2022-11-07T16:18:32.354Z,8.64
2022-11-07T16:20:59.520Z,8.65
2022-11-07T16:23:26.653Z,8.66
2022-11-07T16:25:53.766Z,8.68
2022-11-07T16:28:28.653Z,8.68
2022-11-07T16:30:56.250Z,8.68
2022-11-07T16:33:24.772Z,8.66
2022-11-07T16:35:56.357Z,8.67
2022-11-07T16:38:25.071Z,8.67
2022-11-07T16:40:53.372Z,8.66
2022-11-07T16:43:20.946Z,8.65
2022-11-07T16:45:54.548Z,8.63
2022-11-07T16:48:28.372Z,8.61
2022-11-07T16:50:56.820Z,8.59
2022-11-07T16:53:25.301Z,8.60
2022-11-07T16:55:55.026Z,8.59
2022-11-07T16:58:27.692Z,8.59
2022-11-07T17:00:57.109Z,8.58
2022-11-07T17:03:25.139Z,8.56
2022-11-07T17:05:54.626Z,8.55
2022-11-07T17:08:43.859Z,8.54
2022-11-07T17:11:14.914Z,8.56
2022-11-07T17:13:42.238Z,8.55
2022-11-07T17:16:16.323Z,8.57
2022-11-07T17:18:43.890Z,8.57
2022-11-07T17:21:27.837Z,8.57
2022-11-07T17:23:57.325Z,8.55
2022-11-07T17:26:28.701Z,8.52
2022-11-07T17:28:57.249Z,8.52
2022-11-07T17:31:24.593Z,8.52
2022-11-07T17:33:51.833Z,8.52
2022-11-07T17:36:36.306Z,8.52
2022-11-07T17:39:11.786Z,8.53
2022-11-07T17:41:40.618Z,8.53
2022-11-07T17:44:07.923Z,8.50
2022-11-07T17:46:36.693Z,8.49
2022-11-07T17:49:09.090Z,8.49
2022-11-07T17:51:36.953Z,8.48
2022-11-07T17:54:04.631Z,8.46
2022-11-07T17:56:33.381Z,8.46
2022-11-07T17:59:04.158Z,8.42
2022-11-07T18:01:37.418Z,8.39
2022-11-07T18:04:06.948Z,8.39
2022-11-07T18:06:39.345Z,8.41
2022-11-07T18:09:08.457Z,8.43
2022-11-07T18:11:35.964Z,8.47
2022-11-07T18:14:03.587Z,8.48
2022-11-07T18:16:33.457Z,8.48
2022-11-07T18:19:02.209Z,8.50
2022-11-07T18:21:30.052Z,8.50
2022-11-07T18:23:58.059Z,8.49
2022-11-07T18:26:31.286Z,8.50
2022-11-07T18:29:05.165Z,8.52
2022-11-07T18:31:32.290Z,8.54
2022-11-07T18:34:01.969Z,8.57
2022-11-07T18:36:30.870Z,8.58
2022-11-07T18:39:02.937Z,8.58
2022-11-07T18:41:30.106Z,8.56
2022-11-07T18:44:00.438Z,8.57
2022-11-07T18:46:31.590Z,8.59
2022-11-07T18:49:02.050Z,8.61
2022-11-07T18:51:29.321Z,8.63
2022-11-07T18:53:56.521Z,8.63
2022-11-07T18:56:23.700Z,8.62
2022-11-07T18:58:50.835Z,8.63
2022-11-07T19:01:26.603Z,8.65
2022-11-07T19:03:59.170Z,8.67
2022-11-07T19:06:28.222Z,8.68
2022-11-07T19:08:55.633Z,8.69
2022-11-07T19:11:31.672Z,8.69
2022-11-07T19:14:03.424Z,8.71
2022-11-07T19:16:31.585Z,8.72
2022-11-07T19:18:59.942Z,8.74
2022-11-07T19:21:27.382Z,8.75
2022-11-07T19:23:54.516Z,8.76
2022-11-07T19:26:21.636Z,8.77
2022-11-07T19:28:48.924Z,8.79
2022-11-07T19:31:16.464Z,8.81
2022-11-07T19:33:43.936Z,8.84
2022-11-07T19:36:16.945Z,8.89
2022-11-07T19:38:45.080Z,8.91
2022-11-07T19:41:13.497Z,8.91
2022-11-07T19:43:42.760Z,8.91
2022-11-07T19:46:14.088Z,8.91
2022-11-07T19:48:41.301Z,8.94
2022-11-07T19:51:18.457Z,8.96
2022-11-07T19:53:56.187Z,8.98
2022-11-07T19:56:24.909Z,8.98
2022-11-07T19:58:52.569Z,8.98
2022-11-07T20:01:22.790Z,8.96
2022-11-07T20:03:52.330Z,8.93
2022-11-07T20:06:22.967Z,8.93
2022-11-07T20:08:51.252Z,8.93
2022-11-07T20:11:21.229Z,8.93
2022-11-07T20:13:48.628Z,8.93
2022-11-07T20:16:16.462Z,8.93
2022-11-07T20:18:43.893Z,8.91
2022-11-07T20:21:13.475Z,8.86
2022-11-07T20:23:45.007Z,8.84
2022-11-07T20:26:15.624Z,8.83
2022-11-07T20:28:43.008Z,8.83
2022-11-07T20:31:22.436Z,8.83
2022-11-07T20:33:50.163Z,8.83
2022-11-07T20:36:18.547Z,8.81
2022-11-07T20:38:45.956Z,8.79
2022-11-07T20:41:13.843Z,8.77
2022-11-07T20:43:43.958Z,8.75
2022-11-07T20:46:14.916Z,8.73
2022-11-07T20:48:44.416Z,8.73
2022-11-07T20:51:15.446Z,8.73
2022-11-07T20:53:49.445Z,8.74
2022-11-07T20:56:18.643Z,8.76
2022-11-07T20:58:46.707Z,8.77
2022-11-07T21:01:20.632Z,8.77
2022-11-07T21:03:48.299Z,8.75
2022-11-07T21:06:16.278Z,8.74
2022-11-07T21:08:46.330Z,8.74
2022-11-07T21:11:15.282Z,8.74
2022-11-07T21:13:51.191Z,8.75
2022-11-07T21:16:21.825Z,8.74
2022-11-07T21:18:50.409Z,8.72
2022-11-07T21:21:23.615Z,8.69
2022-11-07T21:23:51.801Z,8.68
2022-11-07T21:26:30.819Z,8.68
2022-11-07T21:28:58.414Z,8.71
2022-11-07T21:31:28.717Z,8.72
2022-11-07T21:33:56.504Z,8.72
2022-11-07T21:36:29.098Z,8.72
2022-11-07T21:38:58.026Z,8.70
2022-11-07T21:41:25.651Z,8.68
2022-11-07T21:43:52.874Z,8.69
2022-11-07T21:46:31.818Z,8.69
2022-11-07T21:48:59.249Z,8.71
2022-11-07T21:51:31.032Z,8.74
2022-11-07T21:53:59.104Z,8.77
2022-11-07T21:56:30.940Z,8.79
2022-11-07T21:59:01.032Z,8.80
2022-11-07T22:01:29.267Z,8.80
2022-11-07T22:04:06.600Z,8.83
2022-11-07T22:06:37.469Z,8.87
2022-11-07T22:09:06.949Z,8.90
2022-11-07T22:11:34.541Z,8.93
2022-11-07T22:14:01.896Z,8.96
2022-11-07T22:16:29.291Z,8.96
2022-11-07T22:18:56.540Z,8.97
2022-11-07T22:21:23.925Z,8.97
2022-11-07T22:23:51.677Z,8.98
2022-11-07T22:26:24.722Z,9.01
2022-11-07T22:28:52.862Z,9.04
2022-11-07T22:31:25.895Z,9.06
2022-11-07T22:33:54.597Z,9.07
2022-11-07T22:36:22.425Z,9.07
2022-11-07T22:38:50.386Z,9.06
2022-11-07T22:41:20.808Z,9.08
2022-11-07T22:43:48.912Z,9.10
2022-11-07T22:46:22.137Z,9.12
2022-11-07T22:48:50.651Z,9.13
2022-11-07T22:51:21.447Z,9.13
2022-11-07T22:53:48.924Z,9.11
2022-11-07T22:56:18.879Z,9.13
2022-11-07T22:58:48.125Z,9.14
2022-11-07T23:01:21.795Z,9.16
2022-11-07T23:03:50.381Z,9.19
2022-11-07T23:06:18.873Z,9.19
2022-11-07T23:08:47.145Z,9.20
2022-11-07T23:14:10.795Z,9.18
2022-11-07T23:16:45.298Z,9.19
2022-11-07T23:19:14.701Z,9.20
2022-11-07T23:21:41.978Z,9.21
2022-11-07T23:24:09.814Z,9.21
2022-11-07T23:26:37.378Z,9.21
2022-11-07T23:29:11.219Z,9.21
2022-11-07T23:31:40.475Z,9.20
2022-11-07T23:34:08.417Z,9.20
2022-11-07T23:36:36.291Z,9.20
2022-11-07T23:39:06.473Z,9.23
2022-11-07T23:41:34.265Z,9.24
2022-11-07T23:44:01.878Z,9.24
2022-11-07T23:46:48.417Z,9.25
2022-11-07T23:49:34.279Z,9.24
2022-11-07T23:52:01.789Z,9.22
2022-11-07T23:54:47.502Z,9.21
2022-11-07T23:57:14.928Z,9.21
